Time;durP1;ratioP1;P1;durP2;ratioP2;P2;SDS_P1;SDS_P2;PMS_P1;PMS_P2;Temp;Humidity;BMP_temperature;BMP_pressure;BME280_temperature;BME280_humidity;BME280_pressure;Samples;Min_cycle;Max_cycle;Signal;HPM_P1;HPM_P2
2022/02/28 00:01:25;;;;;;;9.90;2.45;;;3.80;99.90;;;;;;4918616;29;20028;-71
2022/02/28 00:03:56;;;;;;;15.45;2.42;;;3.80;99.90;;;;;;4918346;29;20032;-71
2022/02/28 00:06:22;;;;;;;10.23;1.73;;;3.80;99.90;;;;;;4918309;29;20050;-71
2022/02/28 00:08:48;;;;;;;9.68;1.90;;;3.80;99.90;;;;;;4918644;29;20080;-71
2022/02/28 00:11:14;;;;;;;10.85;1.77;;;3.80;99.90;;;;;;4918412;29;20034;-71
2022/02/28 00:13:40;;;;;;;9.60;1.67;;;3.80;99.90;;;;;;4932923;29;20479;-71
2022/02/28 00:16:07;;;;;;;9.55;1.60;;;3.80;99.90;;;;;;4918312;29;20108;-71
2022/02/28 00:18:34;;;;;;;6.53;1.63;;;3.80;99.90;;;;;;4918203;29;20484;-71
2022/02/28 00:21:00;;;;;;;6.28;1.83;;;3.70;99.90;;;;;;4918242;29;20039;-71
2022/02/28 00:23:26;;;;;;;7.32;1.70;;;3.70;99.90;;;;;;4917986;29;20523;-71
2022/02/28 00:25:53;;;;;;;6.88;2.08;;;3.70;99.90;;;;;;4918304;29;20111;-71
2022/02/28 00:28:19;;;;;;;7.50;1.45;;;3.60;99.90;;;;;;4917812;29;20059;-71
2022/02/28 00:30:45;;;;;;;4.68;1.52;;;3.60;99.90;;;;;;4918083;29;20032;-71
2022/02/28 00:33:11;;;;;;;6.43;1.65;;;3.60;99.90;;;;;;4917693;29;20156;-71
2022/02/28 00:35:38;;;;;;;11.70;1.60;;;3.50;99.90;;;;;;4917860;29;20035;-71
2022/02/28 00:38:05;;;;;;;8.82;1.60;;;3.50;99.90;;;;;;4917436;29;20099;-71
2022/02/28 00:40:31;;;;;;;6.20;1.25;;;3.50;99.90;;;;;;4916687;29;20055;-71
2022/02/28 00:42:57;;;;;;;8.35;1.70;;;3.40;99.90;;;;;;4917562;29;20063;-73
2022/02/28 00:45:24;;;;;;;6.10;1.60;;;3.40;99.90;;;;;;4917985;29;20040;-70
2022/02/28 00:47:50;;;;;;;8.13;1.67;;;3.40;99.90;;;;;;4918011;29;20056;-76
2022/02/28 00:50:16;;;;;;;10.05;2.40;;;3.40;99.90;;;;;;4917634;29;20128;-76
2022/02/28 00:52:42;;;;;;;9.05;2.22;;;3.50;99.90;;;;;;4917916;29;20024;-76
2022/02/28 00:55:09;;;;;;;8.07;1.63;;;3.50;99.90;;;;;;4917603;29;20541;-76
2022/02/28 00:57:35;;;;;;;10.52;1.83;;;3.40;99.90;;;;;;4917836;29;20035;-76
2022/02/28 01:00:00;;;;;;;6.20;1.90;;;3.50;99.90;;;;;;4917439;29;20036;-76
2022/02/28 01:02:26;;;;;;;9.18;1.63;;;3.50;99.90;;;;;;4917706;29;20024;-76
2022/02/28 01:04:52;;;;;;;5.90;1.55;;;3.40;99.90;;;;;;4917587;29;20047;-76
2022/02/28 01:07:18;;;;;;;6.93;1.67;;;3.40;99.90;;;;;;4917170;29;20399;-74
2022/02/28 01:09:44;;;;;;;8.95;3.10;;;3.40;99.90;;;;;;4917231;29;20039;-73
2022/02/28 01:12:10;;;;;;;6.90;1.73;;;3.40;99.90;;;;;;4917008;29;20413;-74
2022/02/28 01:14:36;;;;;;;7.93;1.45;;;3.30;99.90;;;;;;4917423;29;20020;-74
2022/02/28 01:17:03;;;;;;;6.88;1.60;;;3.30;99.90;;;;;;4917215;29;20024;-74
2022/02/28 01:19:28;;;;;;;5.35;1.70;;;3.20;99.90;;;;;;4917422;29;20358;-74
2022/02/28 01:21:54;;;;;;;6.10;1.60;;;3.10;99.90;;;;;;4916940;29;20043;-74
2022/02/28 01:24:20;;;;;;;9.80;1.42;;;3.10;99.90;;;;;;4916830;29;20040;-74
2022/02/28 01:26:48;;;;;;;7.10;1.65;;;3.00;99.90;;;;;;4916855;29;20036;-74
2022/02/28 01:29:14;;;;;;;8.18;1.60;;;3.00;99.90;;;;;;4917006;29;20104;-76
2022/02/28 01:31:40;;;;;;;5.22;1.55;;;3.00;99.90;;;;;;4916785;29;20028;-77
2022/02/28 01:34:05;;;;;;;6.90;1.73;;;2.90;99.90;;;;;;4916892;29;20028;-76
2022/02/28 01:36:31;;;;;;;10.70;1.92;;;2.90;99.90;;;;;;4916624;29;20488;-77
2022/02/28 01:38:57;;;;;;;4.97;1.45;;;2.90;99.90;;;;;;4916645;29;20138;-76
2022/02/28 01:41:23;;;;;;;10.77;1.55;;;2.90;99.90;;;;;;4916626;29;20032;-76
2022/02/28 01:43:48;;;;;;;6.53;1.60;;;2.90;99.90;;;;;;4916781;29;20035;-73
2022/02/28 01:46:14;;;;;;;12.02;1.75;;;2.80;99.90;;;;;;4916445;29;20027;-73
2022/02/28 01:48:40;;;;;;;8.60;1.67;;;2.70;99.90;;;;;;4916783;29;20034;-72
2022/02/28 01:51:06;;;;;;;7.63;2.15;;;2.70;99.90;;;;;;4916112;29;20130;-72
2022/02/28 01:53:31;;;;;;;4.78;1.48;;;2.60;99.90;;;;;;4916403;29;20062;-72
2022/02/28 01:55:57;;;;;;;6.70;2.08;;;2.60;99.90;;;;;;4916385;29;20032;-72
2022/02/28 01:58:23;;;;;;;10.80;1.92;;;2.50;99.90;;;;;;4916173;29;20028;-73
2022/02/28 02:00:49;;;;;;;10.70;1.70;;;2.40;99.90;;;;;;4916732;29;20428;-72
2022/02/28 02:03:15;;;;;;;6.05;1.63;;;2.30;99.90;;;;;;4916398;29;20028;-72
2022/02/28 02:05:40;;;;;;;7.15;1.50;;;2.20;99.90;;;;;;4916364;29;20092;-72
2022/02/28 02:08:08;;;;;;;8.38;1.67;;;2.10;99.90;;;;;;4916170;29;20491;-75
2022/02/28 02:10:34;;;;;;;9.48;2.03;;;2.10;99.90;;;;;;4916371;29;20039;-75
2022/02/28 02:13:00;;;;;;;8.40;1.92;;;2.10;99.90;;;;;;4916157;29;20563;-75
2022/02/28 02:15:26;;;;;;;7.82;1.77;;;2.00;99.90;;;;;;4916482;29;20051;-73
2022/02/28 02:17:54;;;;;;;6.75;1.58;;;1.90;99.90;;;;;;4916348;29;20036;-73
2022/02/28 02:20:19;;;;;;;6.57;1.33;;;1.90;99.90;;;;;;4915923;29;20366;-73
2022/02/28 02:22:59;;;;;;;8.23;1.73;;;1.80;99.90;;;;;;4930459;29;20035;-72
2022/02/28 02:54:29;;;;;;;12.38;3.38;;;1.90;99.90;;;;;;4909875;29;20135;-76
2022/02/28 02:56:54;;;;;;;3.13;1.63;;;1.90;99.90;;;;;;4915797;29;20448;-76
2022/02/28 02:59:20;;;;;;;7.30;1.63;;;1.90;99.90;;;;;;4915817;29;20432;-76
2022/02/28 03:01:46;;;;;;;6.60;1.52;;;1.90;99.90;;;;;;4916251;29;20059;-76
2022/02/28 03:37:51;;;;;;;10.55;1.70;;;1.40;99.90;;;;;;5462899;23;20415;-71
2022/02/28 03:40:17;;;;;;;8.07;1.88;;;1.40;99.90;;;;;;4956776;29;20031;-71
2022/02/28 03:42:43;;;;;;;8.40;1.50;;;1.40;99.90;;;;;;4956959;28;20038;-71
2022/02/28 03:45:09;;;;;;;7.13;1.63;;;1.30;99.90;;;;;;4957068;28;20474;-72
2022/02/28 03:47:35;;;;;;;7.40;2.13;;;1.30;99.90;;;;;;4956834;28;20525;-72
2022/02/28 03:50:01;;;;;;;6.82;1.65;;;1.20;99.90;;;;;;4956375;28;20027;-69
2022/02/28 03:52:27;;;;;;;7.72;1.85;;;1.10;99.90;;;;;;4957037;28;20054;-69
2022/02/28 03:54:53;;;;;;;10.40;2.08;;;1.10;99.90;;;;;;4956950;29;20032;-69
2022/02/28 03:57:18;;;;;;;8.65;1.60;;;1.00;99.90;;;;;;4956934;28;20114;-69
2022/02/28 03:59:44;;;;;;;11.10;1.75;;;0.90;99.90;;;;;;4956796;28;20111;-68
2022/02/28 04:02:10;;;;;;;9.05;1.67;;;0.90;99.90;;;;;;4956691;29;20039;-68
2022/02/28 04:04:35;;;;;;;7.03;1.58;;;0.90;99.90;;;;;;4956517;29;20035;-68
2022/02/28 04:07:02;;;;;;;11.32;1.80;;;0.80;99.90;;;;;;4956650;29;20023;-68
2022/02/28 04:09:28;;;;;;;11.43;1.77;;;0.80;99.90;;;;;;4956371;28;20046;-68
2022/02/28 04:11:54;;;;;;;7.80;1.52;;;0.80;99.90;;;;;;4956570;28;20028;-68
2022/02/28 04:14:19;;;;;;;9.05;1.73;;;0.70;99.90;;;;;;4955935;28;20030;-68
2022/02/28 04:16:45;;;;;;;7.88;1.80;;;0.70;99.90;;;;;;4956646;29;20032;-69
2022/02/28 04:19:11;;;;;;;4.97;2.03;;;0.70;99.90;;;;;;4956319;28;20475;-69
2022/02/28 04:21:37;;;;;;;7.05;1.60;;;0.70;99.90;;;;;;4956312;28;20483;-69
2022/02/28 04:24:02;;;;;;;5.00;1.92;;;0.60;99.90;;;;;;4956409;29;20039;-70
2022/02/28 04:26:28;;;;;;;8.45;1.75;;;0.60;99.90;;;;;;4956051;29;20039;-69
2022/02/28 04:28:54;;;;;;;9.52;2.22;;;0.60;99.90;;;;;;4956344;29;20074;-70
2022/02/28 04:31:19;;;;;;;5.72;1.67;;;0.60;99.90;;;;;;4956053;29;20019;-70
2022/02/28 04:33:45;;;;;;;6.30;2.20;;;0.60;99.90;;;;;;4956068;29;20082;-70
2022/02/28 04:36:11;;;;;;;5.57;1.90;;;0.60;99.90;;;;;;4955938;28;20063;-70
2022/02/28 04:38:36;;;;;;;9.00;1.95;;;0.50;99.90;;;;;;4955734;28;20105;-69
2022/02/28 04:41:02;;;;;;;5.50;1.63;;;0.50;99.90;;;;;;4956050;29;20479;-69
2022/02/28 04:43:28;;;;;;;8.82;2.05;;;0.60;99.90;;;;;;4955747;29;20050;-69
2022/02/28 04:45:53;;;;;;;11.48;1.88;;;0.60;99.90;;;;;;4956274;29;20027;-69
2022/02/28 04:48:21;;;;;;;7.45;2.20;;;0.60;99.90;;;;;;4955751;29;20475;-68
2022/02/28 04:50:46;;;;;;;11.75;2.22;;;0.60;99.90;;;;;;4955945;28;20046;-68
2022/02/28 04:53:12;;;;;;;10.00;2.00;;;0.50;99.90;;;;;;4955850;28;20431;-68
2022/02/28 04:55:38;;;;;;;7.15;1.95;;;0.60;99.90;;;;;;4955997;28;20023;-68
2022/02/28 04:58:04;;;;;;;9.35;2.30;;;0.60;99.90;;;;;;4955525;29;20027;-68
2022/02/28 05:00:29;;;;;;;16.25;2.10;;;0.60;99.90;;;;;;4955499;29;20066;-68
2022/02/28 05:02:55;;;;;;;9.88;1.92;;;0.70;99.90;;;;;;4954157;29;20379;-68
2022/02/28 05:05:21;;;;;;;10.50;1.90;;;0.70;99.90;;;;;;4955400;28;20039;-68
2022/02/28 05:07:47;;;;;;;6.72;2.13;;;0.70;99.90;;;;;;4955616;28;20024;-68
2022/02/28 05:10:14;;;;;;;10.90;2.17;;;0.80;99.90;;;;;;4955196;28;20038;-68
2022/02/28 05:12:39;;;;;;;14.35;2.13;;;0.80;99.90;;;;;;4955471;28;20031;-68
2022/02/28 05:15:06;;;;;;;9.98;2.10;;;0.90;99.90;;;;;;4955559;28;20083;-68
2022/02/28 05:17:32;;;;;;;6.88;1.85;;;0.90;99.90;;;;;;4955182;28;20434;-68
2022/02/28 05:19:57;;;;;;;13.48;2.55;;;0.90;99.90;;;;;;4955129;29;20023;-70
2022/02/28 05:22:23;;;;;;;11.82;2.60;;;0.90;99.90;;;;;;4955062;28;20035;-70
2022/02/28 05:24:49;;;;;;;16.90;2.85;;;1.00;99.90;;;;;;4954983;28;20031;-70
2022/02/28 05:27:15;;;;;;;9.02;1.67;;;1.00;99.90;;;;;;4954128;29;20090;-69
2022/02/28 05:29:40;;;;;;;9.63;1.85;;;1.00;99.90;;;;;;4954875;28;20031;-69
2022/02/28 05:32:07;;;;;;;12.45;2.08;;;1.00;99.90;;;;;;4955030;28;20058;-71
2022/02/28 05:34:33;;;;;;;10.20;1.83;;;1.00;99.90;;;;;;4954725;28;20035;-70
2022/02/28 05:36:59;;;;;;;9.13;2.20;;;1.00;99.90;;;;;;4953349;28;20047;-71
2022/02/28 05:39:24;;;;;;;14.45;2.20;;;1.00;99.90;;;;;;4954834;29;20498;-76
2022/02/28 05:41:50;;;;;;;10.07;1.98;;;1.10;99.90;;;;;;4954565;29;20392;-73
2022/02/28 05:44:16;;;;;;;14.15;1.90;;;1.30;99.90;;;;;;4954480;29;20113;-74
2022/02/28 05:46:41;;;;;;;9.68;2.17;;;1.30;99.90;;;;;;4954169;29;20027;-72
2022/02/28 05:49:07;;;;;;;9.77;2.05;;;1.20;99.90;;;;;;4954227;28;20027;-71
2022/02/28 05:51:33;;;;;;;9.02;1.38;;;1.10;99.90;;;;;;4956214;28;20429;-72
2022/02/28 05:53:59;;;;;;;10.95;2.28;;;1.10;99.90;;;;;;4961020;28;20035;-77
2022/02/28 05:56:25;;;;;;;11.88;2.03;;;1.10;99.90;;;;;;4953595;29;20102;-72
2022/02/28 05:58:50;;;;;;;7.88;1.95;;;1.00;99.90;;;;;;4953836;28;20027;-72
2022/02/28 06:01:16;;;;;;;14.07;2.40;;;1.10;99.90;;;;;;4972623;28;20529;-71
2022/02/28 06:03:42;;;;;;;7.65;2.00;;;1.00;99.90;;;;;;4952373;29;20035;-72
2022/02/28 06:06:08;;;;;;;8.50;1.73;;;1.00;99.90;;;;;;4953645;28;20055;-71
2022/02/28 06:08:34;;;;;;;6.15;1.67;;;1.10;99.90;;;;;;4953598;29;20035;-72
2022/02/28 06:10:59;;;;;;;6.95;1.80;;;1.00;99.90;;;;;;4953374;28;20016;-71
2022/02/28 06:13:25;;;;;;;11.63;2.38;;;1.10;99.90;;;;;;4953226;28;20023;-71
2022/02/28 06:15:51;;;;;;;10.45;2.45;;;1.10;99.90;;;;;;4954518;28;20114;-72
2022/02/28 06:18:16;;;;;;;10.30;2.22;;;1.20;99.90;;;;;;4953999;29;20023;-71
2022/02/28 06:20:43;;;;;;;12.82;2.75;;;1.20;99.90;;;;;;4954376;29;20102;-68
2022/02/28 06:23:14;;;;;;;11.05;2.95;;;1.20;99.90;;;;;;4954389;28;20058;-72
2022/02/28 06:25:49;;;;;;;12.98;2.45;;;1.20;99.90;;;;;;4954232;28;20427;-70
2022/02/28 06:28:19;;;;;;;19.83;3.60;;;1.30;99.90;;;;;;4954099;28;20643;-71
2022/02/28 06:30:45;;;;;;;13.18;2.70;;;1.30;99.90;;;;;;4954164;28;20041;-71
2022/02/28 06:33:10;;;;;;;6.00;2.10;;;1.30;99.90;;;;;;4954024;28;20114;-70
2022/02/28 06:35:37;;;;;;;11.98;2.53;;;1.30;99.90;;;;;;4953882;29;20023;-70
2022/02/28 06:38:04;;;;;;;17.45;3.17;;;1.30;99.90;;;;;;4953401;28;20055;-70
2022/02/28 06:40:30;;;;;;;11.63;3.58;;;1.30;99.90;;;;;;4953854;28;20027;-70
2022/02/28 06:42:55;;;;;;;10.05;2.60;;;1.30;99.90;;;;;;4954002;29;20027;-70
2022/02/28 06:45:24;;;;;;;11.65;2.50;;;1.30;99.90;;;;;;4953638;28;20490;-71
2022/02/28 06:47:51;;;;;;;9.20;2.80;;;1.40;99.90;;;;;;4954033;29;20032;-71
2022/02/28 06:50:17;;;;;;;13.95;2.10;;;1.40;99.90;;;;;;4953751;28;20028;-70
2022/02/28 06:52:43;;;;;;;9.85;2.17;;;1.40;99.90;;;;;;4953879;28;20027;-70
2022/02/28 06:55:09;;;;;;;11.30;3.10;;;1.40;99.90;;;;;;4953766;29;20102;-71
2022/02/28 06:57:34;;;;;;;12.55;2.58;;;1.30;99.90;;;;;;4953635;29;20020;-71
2022/02/28 07:00:00;;;;;;;13.07;2.00;;;1.30;99.90;;;;;;4953705;29;20034;-71
2022/02/28 07:02:26;;;;;;;7.60;1.95;;;1.70;99.90;;;;;;4953589;28;20054;-72
2022/02/28 07:04:51;;;;;;;23.42;3.05;;;2.60;99.90;;;;;;4953562;29;20042;-72
2022/02/28 07:07:18;;;;;;;92.55;6.40;;;2.60;99.90;;;;;;4953474;29;20074;-72
2022/02/28 07:09:45;;;;;;;40.80;4.07;;;2.30;99.90;;;;;;4953680;28;20103;-72
2022/02/28 07:12:12;;;;;;;23.38;3.63;;;2.10;99.90;;;;;;4953566;28;20427;-72
2022/02/28 07:14:38;;;;;;;24.40;3.60;;;1.90;99.90;;;;;;4953392;28;20074;-70
2022/02/28 07:17:04;;;;;;;15.70;3.20;;;1.80;99.90;;;;;;4953779;28;20035;-71
2022/02/28 07:19:29;;;;;;;14.07;2.80;;;1.70;99.90;;;;;;4953333;28;20438;-72
2022/02/28 07:21:56;;;;;;;14.85;3.38;;;1.70;99.90;;;;;;4953729;28;20039;-73
2022/02/28 07:24:22;;;;;;;12.00;3.15;;;1.70;99.90;;;;;;4953289;28;20525;-71
2022/02/28 07:26:49;;;;;;;10.82;2.55;;;1.70;99.90;;;;;;4953433;28;20027;-69
2022/02/28 07:29:14;;;;;;;12.35;2.80;;;1.60;99.90;;;;;;4953112;28;20035;-71
2022/02/28 07:31:41;;;;;;;11.05;2.40;;;1.60;99.90;;;;;;4953049;29;20027;-76
2022/02/28 07:34:08;;;;;;;18.85;2.80;;;1.60;99.90;;;;;;4952215;29;20035;-73
2022/02/28 07:36:34;;;;;;;8.77;2.53;;;1.60;99.90;;;;;;4953435;29;20079;-75
2022/02/28 07:39:00;;;;;;;10.52;2.95;;;1.60;99.90;;;;;;4952071;29;20114;-73
2022/02/28 07:41:27;;;;;;;15.70;3.70;;;1.60;99.90;;;;;;4953655;29;20023;-67
2022/02/28 07:43:53;;;;;;;14.27;3.22;;;1.60;99.90;;;;;;4953610;28;20043;-72
2022/02/28 07:46:18;;;;;;;12.18;3.28;;;1.60;99.90;;;;;;4953295;29;20163;-70
2022/02/28 07:48:44;;;;;;;15.95;3.05;;;1.60;99.90;;;;;;4953554;28;20391;-71
2022/02/28 07:51:10;;;;;;;11.40;2.97;;;1.60;99.90;;;;;;4956888;28;20068;-71
2022/02/28 07:53:36;;;;;;;11.90;2.50;;;1.60;99.90;;;;;;4955340;29;20023;-67
2022/02/28 07:56:01;;;;;;;11.60;2.90;;;1.70;99.90;;;;;;4956998;29;20031;-67
2022/02/28 07:58:27;;;;;;;8.95;2.47;;;1.70;99.90;;;;;;4956469;28;20086;-68
2022/02/28 08:00:53;;;;;;;10.60;2.75;;;1.70;99.90;;;;;;4956689;29;20027;-69
2022/02/28 08:03:18;;;;;;;17.80;2.67;;;1.70;99.90;;;;;;4955823;29;20101;-69
2022/02/28 08:05:44;;;;;;;14.27;2.97;;;1.80;99.90;;;;;;4954805;29;20059;-69
2022/02/28 08:08:10;;;;;;;12.30;4.10;;;1.80;99.90;;;;;;4962136;28;20035;-69
2022/02/28 08:10:36;;;;;;;12.10;4.15;;;1.90;99.90;;;;;;4956107;29;20023;-69
2022/02/28 08:13:02;;;;;;;17.38;4.40;;;1.90;99.90;;;;;;4956346;28;20039;-69
2022/02/28 08:15:28;;;;;;;15.23;3.50;;;1.90;99.90;;;;;;4956216;28;20483;-69
2022/02/28 08:17:54;;;;;;;10.10;3.22;;;2.00;99.90;;;;;;4956117;28;20082;-69
2022/02/28 08:20:20;;;;;;;10.95;3.20;;;2.00;99.90;;;;;;4955722;29;20383;-69
2022/02/28 08:22:45;;;;;;;14.73;3.40;;;2.10;99.90;;;;;;4955507;29;20048;-69
2022/02/28 08:25:11;;;;;;;12.02;2.75;;;2.10;99.90;;;;;;4955337;28;20391;-69
2022/02/28 08:27:38;;;;;;;13.45;2.97;;;2.10;99.90;;;;;;4955460;29;20031;-69
2022/02/28 08:30:05;;;;;;;12.60;3.10;;;2.10;99.90;;;;;;4955926;28;20024;-68
2022/02/28 08:32:31;;;;;;;12.77;3.28;;;2.30;99.90;;;;;;4955378;28;20023;-69
2022/02/28 08:34:57;;;;;;;7.35;2.63;;;2.60;99.90;;;;;;4955697;29;20027;-67
2022/02/28 08:37:23;;;;;;;16.65;3.00;;;3.20;99.90;;;;;;4955538;28;20515;-67
2022/02/28 08:39:49;;;;;;;16.13;2.90;;;3.80;99.90;;;;;;4955855;28;20020;-68
2022/02/28 08:42:15;;;;;;;12.43;2.50;;;3.70;99.90;;;;;;4955652;28;20031;-68
2022/02/28 08:44:43;;;;;;;13.25;2.40;;;3.50;99.90;;;;;;4955731;29;20035;-67
2022/02/28 08:47:09;;;;;;;18.05;2.40;;;3.30;99.90;;;;;;4954619;29;20395;-67
2022/02/28 08:49:35;;;;;;;17.73;2.40;;;3.20;99.90;;;;;;4955714;28;20427;-67
2022/02/28 08:52:02;;;;;;;15.45;3.10;;;3.20;99.90;;;;;;4955995;28;20042;-67
2022/02/28 08:54:28;;;;;;;10.95;2.80;;;3.10;99.90;;;;;;4955129;28;20031;-67
2022/02/28 08:56:54;;;;;;;12.55;2.67;;;3.00;99.90;;;;;;4955509;29;20049;-67
2022/02/28 08:59:20;;;;;;;12.77;2.33;;;3.10;99.90;;;;;;4955747;28;20031;-68
2022/02/28 09:01:45;;;;;;;10.77;2.40;;;3.10;99.90;;;;;;4955104;28;20023;-68
2022/02/28 09:04:11;;;;;;;15.82;2.40;;;3.10;99.90;;;;;;4955148;28;20114;-68
2022/02/28 09:06:37;;;;;;;10.63;2.78;;;3.10;99.90;;;;;;4955162;28;20544;-68
2022/02/28 09:09:03;;;;;;;10.02;2.80;;;3.10;99.90;;;;;;4955138;29;20030;-68
2022/02/28 09:11:28;;;;;;;10.80;2.13;;;3.20;99.90;;;;;;4955127;29;20027;-68
2022/02/28 09:13:54;;;;;;;13.93;2.67;;;3.20;99.90;;;;;;4955173;29;20110;-68
2022/02/28 09:16:21;;;;;;;14.15;2.42;;;3.20;99.90;;;;;;4955106;29;20096;-68
2022/02/28 09:18:47;;;;;;;14.43;2.90;;;3.30;99.90;;;;;;4954691;28;20118;-68
2022/02/28 09:21:12;;;;;;;14.18;3.25;;;3.30;99.90;;;;;;4955292;28;20150;-68
2022/02/28 09:23:38;;;;;;;14.73;3.05;;;3.40;99.90;;;;;;4954810;29;20486;-68
2022/02/28 09:26:05;;;;;;;13.45;3.03;;;3.40;99.90;;;;;;4954952;29;20106;-68
2022/02/28 09:28:31;;;;;;;14.25;3.03;;;3.40;99.90;;;;;;4954864;28;20026;-68
2022/02/28 09:30:57;;;;;;;16.10;2.63;;;3.50;99.90;;;;;;4954699;28;20386;-68
2022/02/28 09:33:23;;;;;;;17.95;3.17;;;3.50;99.90;;;;;;4954606;28;20031;-68
2022/02/28 09:35:51;;;;;;;12.38;2.97;;;3.60;99.90;;;;;;4954814;28;20505;-68
2022/02/28 09:38:17;;;;;;;18.08;2.70;;;3.60;99.90;;;;;;4953453;28;20054;-68
2022/02/28 09:40:46;;;;;;;12.02;2.85;;;3.70;99.90;;;;;;4954768;28;20075;-68
2022/02/28 09:43:13;;;;;;;13.27;2.60;;;3.80;99.90;;;;;;4954721;28;20037;-68
2022/02/28 09:45:39;;;;;;;14.73;3.45;;;3.90;99.90;;;;;;4953245;29;20082;-68
2022/02/28 09:48:07;;;;;;;15.77;2.63;;;4.00;99.90;;;;;;4954501;28;20360;-68
2022/02/28 09:50:33;;;;;;;10.18;2.75;;;4.00;99.90;;;;;;4954417;28;20031;-68
2022/02/28 09:52:59;;;;;;;10.75;2.30;;;4.10;99.90;;;;;;4953684;29;20019;-70
2022/02/28 09:55:25;;;;;;;13.57;2.13;;;4.30;99.90;;;;;;4954302;29;20542;-69
2022/02/28 09:57:51;;;;;;;10.80;2.15;;;5.30;99.90;;;;;;4954546;29;20491;-67
2022/02/28 10:00:24;;;;;;;16.00;2.35;;;5.40;99.90;;;;;;4954872;28;20032;-67
2022/02/28 10:02:53;;;;;;;15.00;3.13;;;5.20;99.90;;;;;;4954532;28;20058;-69
2022/02/28 10:05:19;;;;;;;21.65;3.08;;;5.10;99.90;;;;;;4954471;28;20038;-68
2022/02/28 10:08:06;;;;;;;14.50;2.85;;;5.10;99.90;;;;;;4954280;28;20379;-67
2022/02/28 10:10:34;;;;;;;9.40;2.38;;;5.10;99.90;;;;;;4953932;28;20110;-67
2022/02/28 10:13:01;;;;;;;8.95;2.58;;;5.10;99.90;;;;;;4953270;28;20035;-67
2022/02/28 10:15:27;;;;;;;12.73;2.80;;;5.00;99.90;;;;;;4953871;28;20020;-68
2022/02/28 10:18:05;;;;;;;13.32;2.92;;;5.00;99.90;;;;;;4955576;28;20308;-71
2022/02/28 10:20:38;;;;;;;14.40;2.70;;;5.10;99.90;;;;;;4955003;28;20069;-70
2022/02/28 10:23:12;;;;;;;14.40;3.78;;;5.00;99.90;;;;;;4953041;28;20126;-70
2022/02/28 10:25:43;;;;;;;13.63;3.17;;;5.00;99.90;;;;;;4941820;29;20023;-69
2022/02/28 10:28:12;;;;;;;15.85;3.20;;;5.10;99.90;;;;;;4953032;28;20027;-68
2022/02/28 10:30:40;;;;;;;19.23;3.08;;;5.10;99.90;;;;;;4955729;28;20027;-67
2022/02/28 10:33:11;;;;;;;19.73;4.07;;;5.10;99.90;;;;;;4960342;28;20061;-68
2022/02/28 10:36:11;;;;;;;21.40;3.60;;;5.10;99.90;;;;;;4960141;28;20035;-67
2022/02/28 10:38:43;;;;;;;16.27;2.90;;;5.10;99.90;;;;;;4951563;29;20051;-67
2022/02/28 10:41:19;;;;;;;16.15;3.25;;;5.10;99.90;;;;;;4953654;28;20391;-66
2022/02/28 10:43:46;;;;;;;17.33;3.95;;;5.20;99.90;;;;;;4952890;28;20031;-67
2022/02/28 10:46:18;;;;;;;18.95;2.97;;;5.20;99.90;;;;;;4952842;28;20440;-66
2022/02/28 10:49:03;;;;;;;14.88;2.33;;;5.30;99.90;;;;;;4953001;28;20954;-65
2022/02/28 10:51:31;;;;;;;11.63;3.10;;;5.50;99.90;;;;;;4953802;28;20427;-66
2022/02/28 10:54:31;;;;;;;14.68;2.50;;;5.60;99.90;;;;;;4954060;28;20081;-66
2022/02/28 10:57:00;;;;;;;21.35;3.97;;;5.60;99.90;;;;;;4911796;29;20031;-66
2022/02/28 10:59:38;;;;;;;18.67;2.90;;;5.60;99.90;;;;;;4953733;29;20114;-66
2022/02/28 11:02:04;;;;;;;13.88;3.28;;;5.70;99.90;;;;;;4953754;28;20495;-66
2022/02/28 11:04:37;;;;;;;11.65;2.92;;;5.80;99.90;;;;;;4953561;29;20039;-66
2022/02/28 11:07:05;;;;;;;10.85;2.78;;;5.80;99.70;;;;;;4953735;28;20385;-67
2022/02/28 11:09:35;;;;;;;15.77;2.70;;;5.80;99.30;;;;;;4953635;28;20479;-67
2022/02/28 11:12:28;;;;;;;7.18;2.53;;;5.70;99.40;;;;;;4953644;28;20074;-67
2022/02/28 11:14:56;;;;;;;15.50;3.25;;;5.70;99.40;;;;;;4953791;28;20038;-67
2022/02/28 11:17:29;;;;;;;10.77;2.50;;;5.70;98.30;;;;;;4952941;28;20027;-67
2022/02/28 11:19:58;;;;;;;18.52;2.90;;;5.80;99.20;;;;;;4950904;28;20058;-67
2022/02/28 11:22:25;;;;;;;11.68;2.50;;;5.80;98.40;;;;;;4954735;28;20054;-67
2022/02/28 11:24:53;;;;;;;14.60;3.28;;;5.80;97.40;;;;;;4967255;28;20050;-67
2022/02/28 11:27:21;;;;;;;17.02;3.65;;;5.80;98.30;;;;;;4968811;28;20030;-66
2022/02/28 11:29:57;;;;;;;16.75;3.63;;;5.80;97.40;;;;;;4968986;28;20084;-67
2022/02/28 11:32:25;;;;;;;11.05;2.90;;;5.80;98.50;;;;;;4971412;28;20027;-67
2022/02/28 11:34:51;;;;;;;14.25;2.63;;;5.80;98.10;;;;;;4971067;28;20046;-67
2022/02/28 11:37:22;;;;;;;9.63;2.78;;;5.90;97.00;;;;;;4975374;28;20051;-67
2022/02/28 11:39:48;;;;;;;13.77;2.78;;;5.90;96.80;;;;;;4970629;28;20027;-67
2022/02/28 11:42:14;;;;;;;10.15;2.40;;;6.00;96.50;;;;;;4962914;28;20031;-67
2022/02/28 11:44:55;;;;;;;13.73;2.75;;;6.00;96.00;;;;;;4963108;28;20050;-67
2022/02/28 11:47:23;;;;;;;15.25;2.50;;;6.10;95.50;;;;;;4976152;28;20150;-67
2022/02/28 11:49:49;;;;;;;16.10;3.22;;;6.10;95.00;;;;;;4975897;28;20481;-66
2022/02/28 11:52:35;;;;;;;11.50;3.10;;;6.20;94.60;;;;;;4976143;28;20019;-68
2022/02/28 11:55:11;;;;;;;17.50;3.00;;;6.20;93.40;;;;;;4975997;28;20027;-68
2022/02/28 11:57:51;;;;;;;11.32;2.53;;;6.20;93.60;;;;;;4974435;28;20062;-70
2022/02/28 12:00:42;;;;;;;12.00;2.43;;;6.20;92.90;;;;;;4976000;28;20023;-69
2022/02/28 12:03:20;;;;;;;11.15;2.28;;;6.30;94.20;;;;;;4975958;28;20025;-70
2022/02/28 12:05:47;;;;;;;10.88;2.00;;;6.50;95.70;;;;;;4976092;28;20101;-72
2022/02/28 12:08:17;;;;;;;20.40;2.75;;;6.80;99.90;;;;;;4975852;28;20051;-71
2022/02/28 12:10:55;;;;;;;13.82;2.45;;;7.20;99.90;;;;;;4974453;28;20061;-72
2022/02/28 12:13:37;;;;;;;13.95;2.85;;;7.40;96.80;;;;;;4975792;28;20031;-72
2022/02/28 12:16:09;;;;;;;12.95;3.05;;;7.30;95.40;;;;;;4975902;28;20110;-71
2022/02/28 12:18:35;;;;;;;9.95;2.30;;;7.40;98.00;;;;;;4966895;28;20058;-74
2022/02/28 12:21:08;;;;;;;9.07;2.45;;;7.50;95.50;;;;;;4955504;28;20479;-69
2022/02/28 12:23:45;;;;;;;14.05;2.80;;;7.40;92.30;;;;;;4955812;28;20062;-70
2022/02/28 12:26:11;;;;;;;11.50;2.53;;;7.20;90.20;;;;;;4956140;28;20650;-70
2022/02/28 12:28:38;;;;;;;11.98;2.58;;;7.10;89.00;;;;;;4955960;28;20112;-69
2022/02/28 12:31:33;;;;;;;11.40;2.42;;;6.90;88.80;;;;;;4956188;28;20046;-70
2022/02/28 12:34:03;;;;;;;8.27;2.15;;;6.90;88.30;;;;;;4955733;28;20028;-71
2022/02/28 12:36:48;;;;;;;11.68;2.65;;;6.80;88.20;;;;;;4954741;28;20085;-70
2022/02/28 12:39:16;;;;;;;10.38;2.15;;;6.80;88.20;;;;;;4953646;28;20058;-70
2022/02/28 12:41:45;;;;;;;8.50;2.10;;;6.80;87.80;;;;;;4955660;28;20082;-71
2022/02/28 12:44:13;;;;;;;8.93;2.13;;;6.80;87.00;;;;;;4953976;29;20093;-71
2022/02/28 12:46:47;;;;;;;20.02;2.70;;;6.70;87.30;;;;;;4955546;28;20047;-69
2022/02/28 12:49:15;;;;;;;14.13;2.13;;;6.70;87.80;;;;;;4954793;28;20034;-68
2022/02/28 12:51:42;;;;;;;10.40;2.33;;;6.70;89.50;;;;;;4955326;28;20031;-71
2022/02/28 12:54:14;;;;;;;12.27;2.65;;;6.70;88.80;;;;;;4954921;28;20043;-70
2022/02/28 12:56:42;;;;;;;11.82;2.30;;;6.70;91.50;;;;;;4936178;29;20024;-70
2022/02/28 12:59:08;;;;;;;9.30;2.17;;;6.70;90.40;;;;;;4936726;29;20027;-70
2022/02/28 13:01:34;;;;;;;7.53;1.92;;;6.70;86.50;;;;;;4936348;29;20642;-70
2022/02/28 13:04:02;;;;;;;13.88;2.22;;;6.70;85.70;;;;;;4936279;29;20036;-70
2022/02/28 13:06:38;;;;;;;13.02;2.65;;;6.70;84.30;;;;;;4936171;29;20031;-70
2022/02/28 13:09:14;;;;;;;6.68;1.90;;;6.70;84.10;;;;;;4936431;29;20438;-70
2022/02/28 13:11:45;;;;;;;6.45;1.73;;;6.70;84.20;;;;;;4936381;29;20027;-70
2022/02/28 13:14:13;;;;;;;8.38;1.58;;;6.60;81.70;;;;;;4949310;29;20499;-70
2022/02/28 13:16:50;;;;;;;8.30;2.20;;;6.40;81.80;;;;;;4955177;28;20031;-70
2022/02/28 13:19:17;;;;;;;9.32;2.17;;;6.40;82.10;;;;;;4954502;28;20483;-70
2022/02/28 13:21:50;;;;;;;9.98;2.22;;;6.40;82.70;;;;;;4954287;28;20070;-69
2022/02/28 13:24:16;;;;;;;9.15;2.10;;;6.30;83.00;;;;;;4954622;28;20039;-71
2022/02/28 13:26:43;;;;;;;5.18;1.40;;;6.40;97.60;;;;;;4952830;28;20028;-70
2022/02/28 13:29:11;;;;;;;8.15;1.77;;;7.10;90.50;;;;;;4954139;28;20039;-68
2022/02/28 13:31:39;;;;;;;9.32;1.95;;;6.90;84.90;;;;;;4951532;29;20055;-67
2022/02/28 13:34:07;;;;;;;7.35;1.85;;;6.70;84.10;;;;;;4953429;28;20110;-67
2022/02/28 13:36:39;;;;;;;9.43;1.70;;;6.50;85.00;;;;;;4953790;28;20026;-66
2022/02/28 13:39:08;;;;;;;8.90;1.58;;;6.40;84.90;;;;;;4953709;28;20127;-66
2022/02/28 13:41:42;;;;;;;7.93;2.67;;;6.30;85.30;;;;;;4954104;28;20027;-67
2022/02/28 13:44:13;;;;;;;7.55;1.35;;;6.30;84.90;;;;;;4973670;28;20117;-67
2022/02/28 13:46:52;;;;;;;11.57;1.70;;;6.20;85.00;;;;;;4953417;28;20029;-67
2022/02/28 13:49:18;;;;;;;12.18;1.95;;;6.20;85.20;;;;;;4954768;28;20027;-67
2022/02/28 13:51:45;;;;;;;7.25;1.35;;;6.10;85.20;;;;;;4954626;28;20035;-67
2022/02/28 13:54:11;;;;;;;7.85;1.65;;;6.10;85.70;;;;;;4955839;28;20035;-67
2022/02/28 13:56:38;;;;;;;10.05;1.92;;;6.00;86.10;;;;;;4953360;28;20023;-71